Flight Track Log - Related Links

Times and Time Zones

All times are in EDT time to prevent confusion due to time zone crossing. See the UAL532 flight status page for this flight to view local times or setup timezone preferences in your user account.

Time Position Orientation Groundspeed Altitude Reporting Facility
EDT Latitude Longitude Course Direction KTS MPH feet Rate Location/Type
Mon 07:59:44 AM 39.8833 -104.5667 90° East 193 222 6,800  Level Denver TRACON
Mon 08:00:44 AM 39.8833 -104.4833 90° East 247 284 9,000 2,024 Climbing Denver TRACON
Mon 08:01:00 AM 39.8667 -104.0794 90° East  Level FlightAware Approximate
Mon 08:01:07 AM 39.8744 -104.4456 107° East 247 284 9,600  Level Denver Center
Mon 08:02:00 AM 39.8667 -103.9323 90° East  Level FlightAware Approximate
Mon 08:02:08 AM 39.8733 -104.3350 91° East 307 353 10,500  Level Denver Center
Mon 08:03:00 AM 39.8702 -103.7859 72° East  Level FlightAware Approximate
Mon 08:03:08 AM 39.8731 -104.2069 90° East 351 404 12,800  Level Denver Center
Mon 08:04:00 AM 39.8834 -103.6415 90° East  Level FlightAware Approximate
Mon 08:04:08 AM 39.8728 -104.0750 90° East 365 420 14,900  Level Denver Center
Mon 08:05:09 AM 39.8708 -103.9339 91° East 377 434 17,300 1,983 Climbing Denver Center
Mon 08:06:09 AM 39.8781 -103.7972 86° East 388 447 18,900 1,636 Climbing Denver Center
Mon 08:07:10 AM 39.8917 -103.6525 83° East 389 448 20,600 1,636 Climbing Denver Center
Mon 08:08:10 AM 39.9100 -103.5022 81° East 416 479 22,200 1,488 Climbing Denver Center
Mon 08:09:11 AM 39.9278 -103.3506 81° East 424 488 23,600 1,279 Climbing Denver Center
Mon 08:10:12 AM 39.9458 -103.1911 82° East 442 509 24,800 1,240 Climbing Denver Center
Mon 08:11:12 AM 39.9636 -103.0286 82° East 453 521 26,100 1,240 Climbing Denver Center
Mon 08:12:13 AM 39.9811 -102.8636 82° East 461 531 27,300 1,041 Climbing Denver Center
Mon 08:13:13 AM 39.9997 -102.6917 82° East 472 543 28,200 942 Climbing Denver Center
Mon 08:14:14 AM 40.0203 -102.4953 82° East 488 562 29,200 1,140 Climbing Denver Center
Mon 08:15:14 AM 40.0383 -102.3242 82° East 497 572 30,500 1,140 Climbing Denver Center
Mon 08:16:15 AM 40.0544 -102.1542 83° East 495 570 31,500 1,033 Climbing Denver Center
Mon 08:17:16 AM 40.0753 -101.9550 82° East 496 571 32,600 1,140 Climbing Denver Center
Mon 08:18:16 AM 40.0928 -101.7847 82° East 497 572 33,800 1,140 Climbing Denver Center
Mon 08:19:17 AM 40.1089 -101.6169 83° East 491 565 34,900 590 Climbing Denver Center
Mon 08:20:18 AM 40.1272 -101.4217 83° East 487 560 35,000 49 Climbing Denver Center
Mon 08:21:19 AM 40.1425 -101.2536 83° East 489 563 35,000  Level Denver Center
Mon 08:22:19 AM 40.1589 -101.0856 83° East 490 564 35,000  Level Denver Center
Mon 08:23:20 AM 40.1778 -100.8864 83° East 495 570 35,000  Level Denver Center
Mon 08:24:21 AM 40.1931 -100.7181 83° East 492 566 35,000  Level Denver Center
Mon 08:25:22 AM 40.2122 -100.5492 81° East 492 566 35,000  Level Denver Center
Mon 08:26:23 AM 40.2525 -100.3564 75° East 495 570 35,000  Level Denver Center
Mon 08:27:23 AM 40.2856 -100.1917 75° East 492 566 35,000  Level Denver Center
Mon 08:28:24 AM 40.3236 -99.9983 75° East 492 566 35,000  Level Denver Center
Mon 08:29:25 AM 40.3539 -99.8511 75° East 495 570 35,000  Level Denver Center
Mon 08:30:08 AM 40.3819 -99.7158 75° East 492 566 35,000  Level Minneapolis Center
Mon 08:30:26 AM 40.3875 -99.6781 79° East 492 566 35,000  Level Denver Center
Mon 08:31:27 AM 40.4214 -99.5042 76° East 494 568 35,000  Level Denver Center
Mon 08:32:12 AM 40.4494 -99.3658 75° East 496 571 35,000  Level Minneapolis Center
Mon 08:33:14 AM 40.4831 -99.1900 76° East 498 573 35,000  Level Minneapolis Center
Mon 08:34:15 AM 40.5219 -98.9797 76° East 497 572 35,000  Level Minneapolis Center
Mon 08:35:17 AM 40.5556 -98.8061 76° East 496 571 35,000  Level Minneapolis Center
Mon 08:36:19 AM 40.5878 -98.6314 76° East 496 571 35,000  Level Minneapolis Center
Mon 08:37:21 AM 40.6206 -98.4547 76° East 497 572 35,000  Level Minneapolis Center
Mon 08:38:22 AM 40.6531 -98.2767 76° East 500 575 35,000  Level Minneapolis Center
Mon 08:39:24 AM 40.6853 -98.0997 76° East 501 577 35,000  Level Minneapolis Center
Mon 08:40:26 AM 40.7239 -97.8844 77° East 504 580 35,000  Level Minneapolis Center
Mon 08:41:28 AM 40.7553 -97.7067 77° East 502 578 35,000  Level Minneapolis Center
Mon 08:42:30 AM 40.7875 -97.5264 77° East 504 580 35,000  Level Minneapolis Center
Mon 08:43:31 AM 40.8189 -97.3444 77° East 500 575 35,000  Level Minneapolis Center
Mon 08:44:46 AM 40.8567 -97.1286 77° East 503 579 35,000  Level Minneapolis Center
Mon 08:45:47 AM 40.8881 -96.9481 77° East 505 581 35,000  Level Minneapolis Center
Mon 08:46:49 AM 40.9181 -96.7667 78° East 507 583 35,000  Level Minneapolis Center
Mon 08:47:51 AM 40.9361 -96.5469 84° East 504 580 35,000  Level Minneapolis Center
Mon 08:48:53 AM 40.9458 -96.3628 86° East 505 581 35,000  Level Minneapolis Center
Mon 08:49:55 AM 40.9572 -96.1786 85° East 505 581 35,000  Level Minneapolis Center
Mon 08:50:56 AM 40.9683 -95.9919 85° East 510 587 35,000  Level Minneapolis Center
Mon 08:51:58 AM 40.9781 -95.8050 86° East 513 590 35,000  Level Minneapolis Center
Mon 08:53:12 AM 40.9894 -95.6197 85° East 512 589 35,000  Level Minneapolis Center
Mon 08:54:14 AM 41.0514 -95.3681 72° East 517 595 35,000  Level Minneapolis Center
Mon 08:55:16 AM 41.0406 -95.1847 94° East 508 585 35,000  Level Minneapolis Center
Mon 08:56:17 AM 40.9967 -95.0522 114° Southeast 494 568 35,000  Level Minneapolis Center
Mon 08:57:19 AM 40.9289 -94.8536 114° Southeast 494 568 35,000  Level Minneapolis Center
Mon 08:58:21 AM 40.8733 -94.6894 114° Southeast 491 565 35,000  Level Minneapolis Center
Mon 08:59:23 AM 40.8136 -94.5131 114° Southeast 493 567 35,000  Level Minneapolis Center
Mon 09:00:24 AM 40.7575 -94.3497 114° Southeast 494 568 35,000  Level Minneapolis Center
Mon 09:01:38 AM 40.7008 -94.1836 114° Southeast 498 573 35,000  Level Minneapolis Center
Mon 09:02:40 AM 40.6319 -93.9878 115° Southeast 496 571 35,000 97 Level Minneapolis Center
Mon 09:03:42 AM 40.5628 -93.7914 115° Southeast 495 570 35,200 390 Climbing Minneapolis Center
Mon 09:04:43 AM 40.5061 -93.6281 114° Southeast 496 571 35,800 552 Climbing Minneapolis Center
Mon 09:05:09 AM 40.4819 -93.5614 115° Southeast 495 570 36,000 733 Climbing Kansas City Center
Mon 09:06:13 AM 40.4233 -93.3975 115° Southeast 499 574 36,900 484 Climbing Kansas City Center
Mon 09:07:13 AM 40.3658 -93.2339 115° Southeast 499 574 37,000 50 Climbing Kansas City Center
Mon 09:08:14 AM 40.3075 -93.0719 115° Southeast 497 572 37,000  Level Kansas City Center
Mon 09:09:18 AM 40.2414 -92.8850 115° Southeast 502 578 37,000  Level Kansas City Center
Mon 09:10:19 AM 40.1986 -92.6828 105° East 516 594 37,000  Level Kansas City Center
Mon 09:11:19 AM 40.2319 -92.5028 76° East 530 610 37,000  Level Kansas City Center
Mon 09:12:20 AM 40.2911 -92.3050 69° East 545 627 37,000 -192 Level Kansas City Center
Mon 09:13:24 AM 40.3447 -92.1239 69° East 544 626 36,600 -475 Descending Kansas City Center
Mon 09:14:01 AM 40.3758 -92.0172 69° East 535 616 36,200 -848 Descending Chicago Center
Mon 09:15:03 AM 40.4275 -91.8408 69° East 525 604 35,200 -897 Descending Chicago Center
Mon 09:15:28 AM 40.4472 -91.7700 70° East 523 602 34,900 -907 Descending Kansas City Center
Mon 09:16:29 AM 40.4981 -91.5931 69° East 522 601 33,900 -942 Descending Kansas City Center
Mon 09:17:29 AM 40.5592 -91.3825 69° East 519 597 33,000 -446 Descending Kansas City Center
Mon 09:18:30 AM 40.6144 -91.2197 66° East 518 596 33,000  Level Kansas City Center
Mon 09:19:11 AM 40.6508 -91.1175 65° Northeast 517 595 33,000 -1,049 Level Chicago Center
Mon 09:20:13 AM 40.7228 -90.9103 65° Northeast 517 595 31,200 -1,597 Descending Chicago Center
Mon 09:21:15 AM 40.7792 -90.7425 66° East 505 581 29,700 -1,113 Descending Chicago Center
Mon 09:22:17 AM 40.8350 -90.5767 66° East 494 568 28,900 -823 Descending Chicago Center
Mon 09:23:19 AM 40.8914 -90.4067 66° East 499 574 28,000 -864 Descending Chicago Center
Mon 09:24:22 AM 40.9536 -90.2214 66° East 499 574 27,100 -768 Descending Chicago Center
Mon 09:25:24 AM 41.0042 -90.0697 66° East 495 570 26,400 -774 Descending Chicago Center
Mon 09:26:26 AM 41.0583 -89.9033 67° East 488 562 25,500 -823 Descending Chicago Center
Mon 09:27:28 AM 41.1128 -89.7369 66° East 487 560 24,700 -774 Descending Chicago Center
Mon 09:28:30 AM 41.1778 -89.5417 66° East 481 554 23,900 -1,403 Descending Chicago Center
Mon 09:29:32 AM 41.2417 -89.3889 61° Northeast 477 549 21,800 -2,081 Descending Chicago Center
Mon 09:30:34 AM 41.3006 -89.2406 62° Northeast 459 528 19,600 -2,419 Descending Chicago Center
Mon 09:31:36 AM 41.3561 -89.0992 62° Northeast 431 496 16,800 -2,855 Descending Chicago Center
Mon 09:32:38 AM 41.4114 -88.9592 62° Northeast 429 494 13,700 -2,758 Descending Chicago Center
Mon 09:33:40 AM 41.4672 -88.8197 62° Northeast 429 494 11,100 -1,306 Descending Chicago Center
Mon 09:34:42 AM 41.5267 -88.6722 62° Northeast 382 440 11,000 -48 Descending Chicago Center
Mon 09:35:44 AM 41.5733 -88.5508 63° Northeast 368 423 11,000  Level Chicago Center
Mon 09:36:47 AM 41.6283 -88.4325 58° Northeast 375 432 11,000  Level Chicago Center
Mon 09:37:49 AM 41.6928 -88.3239 52° Northeast 372 428 11,000  Level Chicago Center
Mon 09:38:51 AM 41.7553 -88.2144 53° Northeast 371 427 11,000 -387 Level Chicago Center
Mon 09:39:53 AM 41.8108 -88.1200 52° Northeast 333 383 10,200 -1,016 Descending Chicago Center
Mon 09:40:55 AM 41.8617 -88.0278 53° Northeast 308 354 8,900 -1,452 Descending Chicago Center
Mon 09:41:57 AM 41.8839 -87.9061 76° East 293 337 7,200 -919 Descending Chicago Center
Mon 09:42:59 AM 41.8842 -87.7997 90° East 287 330 7,000 -194 Descending Chicago Center

Login

Don't have an account? Register now (free) for customized features, flight alerts, and more!